createdAt,value
2019-02-27T00:01:05.267Z,4.10
2019-02-27T00:02:06.777Z,4.10
2019-02-27T00:03:07.896Z,4.10
2019-02-27T00:04:09.374Z,4.20
2019-02-27T00:05:10.485Z,4.10
2019-02-27T00:06:12.931Z,4.10
2019-02-27T00:07:15.019Z,4.10
2019-02-27T00:08:16.369Z,4.10
2019-02-27T00:09:17.503Z,4.10
2019-02-27T00:10:18.921Z,4.10
2019-02-27T00:11:20.027Z,4.00
2019-02-27T00:12:21.140Z,4.00
2019-02-27T00:13:24.709Z,4.00
2019-02-27T00:14:25.524Z,4.00
2019-02-27T00:15:26.929Z,4.00
2019-02-27T00:16:28.045Z,4.00
2019-02-27T00:17:29.189Z,4.00
2019-02-27T00:18:30.552Z,3.90
2019-02-27T00:19:31.978Z,3.90
2019-02-27T00:20:36.627Z,3.80
2019-02-27T00:21:36.178Z,3.70
2019-02-27T00:22:37.297Z,3.70
2019-02-27T00:23:38.760Z,3.80
2019-02-27T00:24:39.892Z,3.80
2019-02-27T00:25:41.009Z,3.80
2019-02-27T00:26:42.459Z,3.80
2019-02-27T00:27:48.809Z,3.80
2019-02-27T00:28:47.698Z,3.80
2019-02-27T00:29:48.881Z,3.80
2019-02-27T00:30:49.992Z,3.80
2019-02-27T00:31:51.500Z,3.80
2019-02-27T00:32:52.949Z,3.80
2019-02-27T00:33:54.065Z,3.80
2019-02-27T00:34:55.193Z,3.80
2019-02-27T00:35:56.505Z,3.70
2019-02-27T00:36:57.639Z,3.70
2019-02-27T00:37:59.250Z,3.70
2019-02-27T00:39:00.372Z,3.70
2019-02-27T00:40:05.349Z,3.70
2019-02-27T00:41:04.517Z,3.60
2019-02-27T00:42:05.868Z,3.60
2019-02-27T00:43:06.981Z,3.60
2019-02-27T00:44:08.096Z,3.50
2019-02-27T00:45:10.240Z,3.50
2019-02-27T00:46:13.384Z,3.50
2019-02-27T00:47:19.719Z,3.50
2019-02-27T00:48:17.945Z,3.50
2019-02-27T00:49:19.380Z,3.50
2019-02-27T00:50:20.512Z,3.50
2019-02-27T00:51:21.941Z,3.50
2019-02-27T00:52:23.212Z,3.40
2019-02-27T00:53:25.175Z,3.40
2019-02-27T00:54:26.344Z,3.40
2019-02-27T00:55:27.468Z,3.40
2019-02-27T00:56:28.583Z,3.40
2019-02-27T00:57:29.711Z,3.40
2019-02-27T00:58:31.116Z,3.30
2019-02-27T00:59:33.135Z,3.40
2019-02-27T01:00:38.892Z,3.30
2019-02-27T01:01:38.505Z,3.30
2019-02-27T01:02:39.615Z,3.30
2019-02-27T01:03:41.384Z,3.20
2019-02-27T01:04:42.512Z,3.20
2019-02-27T01:05:43.953Z,3.20
2019-02-27T01:06:47.313Z,3.30
2019-02-27T01:07:48.365Z,3.30
2019-02-27T01:08:49.477Z,3.30
2019-02-27T01:09:50.608Z,3.30
2019-02-27T01:10:51.713Z,3.30
2019-02-27T01:11:53.415Z,3.10
2019-02-27T01:12:57.961Z,3.00
2019-02-27T01:13:57.802Z,3.00
2019-02-27T01:14:58.932Z,2.90
2019-02-27T01:16:00.044Z,3.00
2019-02-27T01:17:01.429Z,3.00
2019-02-27T01:18:02.544Z,3.10
2019-02-27T01:19:04.804Z,3.20
2019-02-27T01:20:11.529Z,3.20
2019-02-27T01:21:12.916Z,3.20
2019-02-27T01:22:14.028Z,3.20
2019-02-27T01:23:15.397Z,3.30
2019-02-27T01:24:17.520Z,3.30
2019-02-27T01:25:22.863Z,3.30
2019-02-27T01:26:22.584Z,3.20
2019-02-27T01:27:23.710Z,3.20
2019-02-27T01:28:25.069Z,3.20
2019-02-27T01:29:26.192Z,3.20
2019-02-27T01:30:27.625Z,3.20
2019-02-27T01:31:28.753Z,3.20
2019-02-27T01:32:31.166Z,3.10
2019-02-27T01:33:37.781Z,3.10
2019-02-27T01:34:35.568Z,3.10
2019-02-27T01:35:36.693Z,3.00
2019-02-27T01:36:37.811Z,3.00
2019-02-27T01:37:38.972Z,3.00
2019-02-27T01:38:40.085Z,3.00
2019-02-27T01:39:41.771Z,2.90
2019-02-27T01:40:43.164Z,2.90
2019-02-27T01:41:44.282Z,2.90
2019-02-27T01:42:45.394Z,2.90
2019-02-27T01:43:46.762Z,2.90
2019-02-27T01:44:47.874Z,2.90
2019-02-27T01:45:48.995Z,2.90
2019-02-27T01:46:50.364Z,2.80
2019-02-27T01:47:51.580Z,2.80
2019-02-27T01:48:53.043Z,2.80
2019-02-27T01:49:54.148Z,2.80
2019-02-27T01:50:55.852Z,2.70
2019-02-27T01:51:59.201Z,2.70
2019-02-27T01:53:00.371Z,2.60
2019-02-27T01:54:01.729Z,2.60
2019-02-27T01:55:03.386Z,2.60
2019-02-27T01:56:04.756Z,2.60
2019-02-27T01:57:05.864Z,2.60
2019-02-27T01:58:09.581Z,2.60
2019-02-27T01:59:10.356Z,2.60
2019-02-27T02:00:11.953Z,2.60
2019-02-27T02:01:13.079Z,2.60
2019-02-27T02:02:14.189Z,2.60
2019-02-27T02:03:15.564Z,2.50
2019-02-27T02:04:20.046Z,2.50
2019-02-27T02:05:19.697Z,2.50
2019-02-27T02:06:22.573Z,2.60
2019-02-27T02:07:23.766Z,2.60
2019-02-27T02:08:24.884Z,2.60
2019-02-27T02:09:30.280Z,2.70
2019-02-27T02:10:31.395Z,2.50
2019-02-27T02:11:32.755Z,2.50
2019-02-27T02:12:33.931Z,2.60
2019-02-27T02:13:50.654Z,2.50
2019-02-27T02:14:58.368Z,2.50
2019-02-27T02:16:24.108Z,2.40
2019-02-27T02:17:41.649Z,2.40
2019-02-27T02:18:49.370Z,2.40
2019-02-27T02:20:09.119Z,2.40
2019-02-27T02:21:32.113Z,2.50
2019-02-27T02:22:38.929Z,2.50
2019-02-27T02:24:21.206Z,2.50
2019-02-27T02:25:29.417Z,2.40
2019-02-27T02:28:48.774Z,2.20
2019-02-27T02:30:02.530Z,2.10
2019-02-27T02:31:07.850Z,2.20
2019-02-27T02:32:30.803Z,2.20
2019-02-27T02:33:44.124Z,2.20
2019-02-27T02:35:05.806Z,2.20
2019-02-27T02:36:29.089Z,2.20
2019-02-27T02:37:37.815Z,2.30
2019-02-27T02:38:49.717Z,2.30
2019-02-27T02:40:12.624Z,2.30
2019-02-27T02:41:32.173Z,2.30
2019-02-27T02:42:53.710Z,2.30
2019-02-27T02:44:20.774Z,2.20
2019-02-27T02:45:26.346Z,2.20
2019-02-27T02:46:48.043Z,2.10
2019-02-27T02:48:05.147Z,2.20
2019-02-27T02:49:13.117Z,2.20
2019-02-27T02:50:29.829Z,2.30
2019-02-27T02:51:37.329Z,2.30
2019-02-27T02:53:04.313Z,2.20
2019-02-27T02:54:27.157Z,2.20
2019-02-27T02:55:38.067Z,2.20
2019-02-27T02:57:11.981Z,2.20
2019-02-27T02:58:20.102Z,2.20
2019-02-27T02:59:50.936Z,2.20
2019-02-27T03:01:01.728Z,2.20
2019-02-27T03:02:12.577Z,2.20
2019-02-27T03:03:21.278Z,2.10
2019-02-27T03:04:47.976Z,2.10
2019-02-27T03:06:22.950Z,2.10
2019-02-27T03:07:44.879Z,2.00
2019-02-27T03:09:15.235Z,2.00
2019-02-27T03:10:26.005Z,1.90
2019-02-27T03:11:54.150Z,1.80
2019-02-27T03:13:21.349Z,1.80
2019-02-27T03:14:43.916Z,1.80
2019-02-27T03:15:49.110Z,1.90
2019-02-27T03:17:00.061Z,1.90
2019-02-27T03:18:05.639Z,1.90
2019-02-27T03:19:19.404Z,1.90
2019-02-27T03:20:27.306Z,1.90
2019-02-27T03:21:44.185Z,2.00
2019-02-27T03:22:58.494Z,1.90
2019-02-27T03:24:27.869Z,1.80
2019-02-27T03:25:49.237Z,1.80
2019-02-27T03:27:12.739Z,1.80
2019-02-27T03:28:40.953Z,1.90
2019-02-27T03:29:56.625Z,1.90
2019-02-27T03:31:16.410Z,1.90
2019-02-27T03:32:29.203Z,1.90
2019-02-27T03:34:05.533Z,1.80
2019-02-27T03:35:08.001Z,1.80
2019-02-27T03:36:38.992Z,1.70
2019-02-27T03:37:48.368Z,1.60
2019-02-27T03:39:10.607Z,1.60
2019-02-27T03:40:35.461Z,1.60
2019-02-27T03:41:59.410Z,1.60
2019-02-27T03:43:20.977Z,1.60
2019-02-27T03:44:34.521Z,1.60
2019-02-27T03:45:42.661Z,1.60
2019-02-27T03:46:47.889Z,1.60
2019-02-27T03:48:07.415Z,1.60
2019-02-27T03:49:46.049Z,1.60
2019-02-27T03:50:56.764Z,1.60
2019-02-27T03:52:13.578Z,1.50
2019-02-27T03:53:27.445Z,1.50
2019-02-27T03:54:58.129Z,1.40
2019-02-27T03:56:26.053Z,1.40
2019-02-27T03:57:46.108Z,1.40
2019-02-27T03:59:08.069Z,1.40
2019-02-27T04:00:19.190Z,1.40
2019-02-27T04:01:22.544Z,1.40
2019-02-27T04:02:38.908Z,1.50
2019-02-27T04:03:55.408Z,1.40
2019-02-27T04:05:09.544Z,1.40
2019-02-27T04:06:32.859Z,1.30
2019-02-27T04:08:08.557Z,1.20
2019-02-27T04:09:09.853Z,1.30
2019-02-27T04:10:11.415Z,1.30
2019-02-27T04:11:12.563Z,1.30
2019-02-27T04:12:16.391Z,1.30
2019-02-27T04:13:17.029Z,1.20
2019-02-27T04:14:26.490Z,1.20
2019-02-27T04:15:27.801Z,1.20
2019-02-27T04:16:30.487Z,1.40
2019-02-27T04:17:31.803Z,1.50
2019-02-27T04:18:33.031Z,1.50
2019-02-27T04:19:38.831Z,1.60
2019-02-27T04:20:37.485Z,1.60
2019-02-27T04:21:38.606Z,1.60
2019-02-27T04:22:39.777Z,1.60
2019-02-27T04:23:40.907Z,1.60
2019-02-27T04:24:42.026Z,1.60
2019-02-27T04:25:43.188Z,1.50
2019-02-27T04:26:44.377Z,1.60
2019-02-27T04:27:45.494Z,1.50
2019-02-27T04:28:46.922Z,1.50
2019-02-27T04:29:48.050Z,1.50
2019-02-27T04:30:51.270Z,1.40
2019-02-27T04:31:52.201Z,1.40
2019-02-27T04:32:53.600Z,1.30
2019-02-27T04:33:59.740Z,1.30
2019-02-27T04:34:57.744Z,1.30
2019-02-27T04:35:59.157Z,1.30
2019-02-27T04:37:00.508Z,1.30
2019-02-27T04:38:01.621Z,1.30
2019-02-27T04:39:05.052Z,1.20
2019-02-27T04:40:10.782Z,1.20
2019-02-27T04:41:10.005Z,1.20
2019-02-27T04:42:11.380Z,1.30
2019-02-27T04:43:12.525Z,1.20
2019-02-27T04:44:13.688Z,1.20
2019-02-27T04:45:14.808Z,1.20
2019-02-27T04:46:15.912Z,1.20
2019-02-27T04:47:17.353Z,1.10
2019-02-27T04:48:18.497Z,1.10
2019-02-27T04:49:19.600Z,1.10
2019-02-27T04:50:20.836Z,1.10
2019-02-27T04:51:21.973Z,1.10
2019-02-27T04:52:24.403Z,1.10
2019-02-27T04:53:25.625Z,1.10
2019-02-27T04:54:26.977Z,1.10
2019-02-27T04:55:28.108Z,1.00
2019-02-27T04:56:29.457Z,1.00
2019-02-27T04:57:33.400Z,1.00
2019-02-27T04:58:33.584Z,1.00
2019-02-27T04:59:34.715Z,1.00
2019-02-27T05:00:35.828Z,0.90
2019-02-27T05:01:37.416Z,0.90
2019-02-27T05:02:38.624Z,0.90
2019-02-27T05:03:40.088Z,0.90
2019-02-27T05:04:41.273Z,0.90
2019-02-27T05:05:42.515Z,1.00
2019-02-27T05:06:46.869Z,0.90
2019-02-27T05:07:46.695Z,0.80
2019-02-27T05:08:47.821Z,0.80
2019-02-27T05:09:49.896Z,0.80
2019-02-27T05:10:51.181Z,0.80
2019-02-27T05:11:52.633Z,0.90
2019-02-27T05:12:53.750Z,0.90
2019-02-27T05:13:54.904Z,0.90
2019-02-27T05:14:56.100Z,0.90
2019-02-27T05:15:57.450Z,1.00
2019-02-27T05:16:59.666Z,1.00
2019-02-27T05:18:00.864Z,1.00
2019-02-27T05:19:04.042Z,1.00
2019-02-27T05:20:11.678Z,1.10
2019-02-27T05:21:10.511Z,1.10
2019-02-27T05:22:11.638Z,1.10
2019-02-27T05:23:13.092Z,1.10
2019-02-27T05:24:14.217Z,1.10
2019-02-27T05:25:15.661Z,1.10
2019-02-27T05:26:16.786Z,1.00
2019-02-27T05:27:18.216Z,0.90
2019-02-27T05:28:19.768Z,0.90
2019-02-27T05:29:20.899Z,0.90
2019-02-27T05:30:22.016Z,0.90
2019-02-27T05:31:23.136Z,0.90
2019-02-27T05:32:25.249Z,0.80
2019-02-27T05:33:27.536Z,0.80
2019-02-27T05:34:28.673Z,0.70
2019-02-27T05:35:29.808Z,0.70
2019-02-27T05:36:31.634Z,0.70
2019-02-27T05:37:36.098Z,0.80
2019-02-27T05:38:36.457Z,0.80
2019-02-27T05:39:37.868Z,0.90
2019-02-27T05:40:39.017Z,0.80
2019-02-27T05:41:40.127Z,0.80
2019-02-27T05:42:41.239Z,0.80
2019-02-27T05:43:47.555Z,0.70
2019-02-27T05:44:45.376Z,0.70
2019-02-27T05:45:46.493Z,0.70
2019-02-27T05:46:47.613Z,0.60
2019-02-27T05:47:49.077Z,0.60
2019-02-27T05:48:50.842Z,0.60
2019-02-27T05:49:53.231Z,0.60
2019-02-27T05:50:54.949Z,0.60
2019-02-27T05:51:56.388Z,0.60
2019-02-27T05:52:57.820Z,0.60
2019-02-27T05:53:59.191Z,0.60
2019-02-27T05:55:00.806Z,0.60
2019-02-27T05:56:01.938Z,0.70
2019-02-27T05:57:03.285Z,0.70
2019-02-27T05:58:04.428Z,0.80
2019-02-27T05:59:05.542Z,0.90
2019-02-27T06:00:10.073Z,0.80
2019-02-27T06:01:11.206Z,0.80
2019-02-27T06:02:12.332Z,0.80
2019-02-27T06:03:15.935Z,0.70
2019-02-27T06:04:18.139Z,0.60
2019-02-27T06:05:19.521Z,0.50
2019-02-27T06:06:20.629Z,0.40
2019-02-27T06:07:21.733Z,0.40
2019-02-27T06:08:22.836Z,0.40
2019-02-27T06:09:23.980Z,0.50
2019-02-27T06:10:25.092Z,0.70
2019-02-27T06:11:27.137Z,0.80
2019-02-27T06:12:29.584Z,0.90
2019-02-27T06:13:30.688Z,0.90
2019-02-27T06:14:31.812Z,1.00
2019-02-27T06:15:33.293Z,1.00
2019-02-27T06:16:37.074Z,1.00
2019-02-27T06:17:43.346Z,1.00
2019-02-27T06:18:40.632Z,1.00
2019-02-27T06:19:41.757Z,1.00
2019-02-27T06:20:42.884Z,1.00
2019-02-27T06:21:44.284Z,0.90
2019-02-27T06:22:45.408Z,0.90
2019-02-27T06:23:46.763Z,0.80
2019-02-27T06:24:48.238Z,0.80
2019-02-27T06:25:49.352Z,0.70
2019-02-27T06:26:50.477Z,0.70
2019-02-27T06:27:51.598Z,0.60
2019-02-27T06:29:01.570Z,0.50
2019-02-27T06:30:09.022Z,0.40
2019-02-27T06:31:10.456Z,0.50
2019-02-27T06:32:12.329Z,0.50
2019-02-27T06:33:13.600Z,0.50
2019-02-27T06:34:14.726Z,0.40
2019-02-27T06:35:15.956Z,0.40
2019-02-27T06:36:17.319Z,0.30
2019-02-27T06:37:18.421Z,0.40
2019-02-27T06:38:19.530Z,0.40
2019-02-27T06:39:20.645Z,0.50
2019-02-27T06:40:21.771Z,0.50
2019-02-27T06:41:23.288Z,0.50
2019-02-27T06:42:24.742Z,0.40
2019-02-27T06:43:27.322Z,0.40
2019-02-27T06:44:29.005Z,0.40
2019-02-27T06:45:30.425Z,0.40
2019-02-27T06:46:31.852Z,0.30
2019-02-27T06:47:35.375Z,0.40
2019-02-27T06:48:36.233Z,0.50
2019-02-27T06:49:37.341Z,0.50
2019-02-27T06:50:38.456Z,0.50
2019-02-27T06:51:39.565Z,0.40
2019-02-27T06:52:42.457Z,0.40
2019-02-27T06:53:43.729Z,0.40
2019-02-27T06:54:44.900Z,0.40
2019-02-27T06:55:46.375Z,0.50
2019-02-27T06:56:47.650Z,0.40
2019-02-27T06:57:49.124Z,0.40
2019-02-27T06:58:50.739Z,0.40
2019-02-27T06:59:51.973Z,0.50
2019-02-27T07:00:53.651Z,0.50
2019-02-27T07:01:54.803Z,0.50
2019-02-27T07:02:56.224Z,0.50
2019-02-27T07:03:57.412Z,0.50
2019-02-27T07:04:58.804Z,0.40
2019-02-27T07:05:59.944Z,0.40
2019-02-27T07:07:01.057Z,0.40
2019-02-27T07:08:04.689Z,0.50
2019-02-27T07:09:05.589Z,0.50
2019-02-27T07:10:14.397Z,0.40
2019-02-27T07:11:15.950Z,0.40
2019-02-27T07:12:21.614Z,0.40
2019-02-27T07:13:21.566Z,0.40
2019-02-27T07:14:23.253Z,0.40
2019-02-27T07:15:24.491Z,0.40
2019-02-27T07:16:25.605Z,0.30
2019-02-27T07:17:29.207Z,0.30
2019-02-27T07:18:30.071Z,0.20
2019-02-27T07:19:31.192Z,0.20
2019-02-27T07:20:32.610Z,0.20
2019-02-27T07:21:33.732Z,0.20
2019-02-27T07:22:34.855Z,0.20
2019-02-27T07:23:36.314Z,0.20
2019-02-27T07:24:37.430Z,0.20
2019-02-27T07:25:42.011Z,0.20
2019-02-27T07:26:41.664Z,0.20
2019-02-27T07:27:43.091Z,0.20
2019-02-27T07:28:44.227Z,0.30
2019-02-27T07:29:45.366Z,0.30
2019-02-27T07:30:46.517Z,0.40
2019-02-27T07:31:49.528Z,0.40
2019-02-27T07:32:50.766Z,0.40
2019-02-27T07:33:51.876Z,0.40
2019-02-27T07:34:52.988Z,0.50
2019-02-27T07:35:54.359Z,0.50
2019-02-27T07:36:55.475Z,0.50
2019-02-27T07:37:56.599Z,0.60
2019-02-27T07:38:58.306Z,0.60
2019-02-27T07:39:59.580Z,0.60
2019-02-27T07:41:00.985Z,0.60
2019-02-27T07:42:02.113Z,0.60
2019-02-27T07:43:05.750Z,0.60
2019-02-27T07:44:06.464Z,0.60
2019-02-27T07:45:13.658Z,0.70
2019-02-27T07:46:15.175Z,0.70
2019-02-27T07:47:16.285Z,0.70
2019-02-27T07:48:17.729Z,0.70
2019-02-27T07:49:19.168Z,0.80
2019-02-27T07:50:20.483Z,0.80
2019-02-27T07:51:23.295Z,0.80
2019-02-27T07:52:25.004Z,0.80
2019-02-27T07:53:26.125Z,0.80
2019-02-27T07:54:29.120Z,0.80
2019-02-27T07:55:30.265Z,0.80
2019-02-27T07:56:31.710Z,0.90
2019-02-27T07:57:32.836Z,0.90
2019-02-27T07:58:34.640Z,0.90
2019-02-27T07:59:38.140Z,0.90
2019-02-27T08:00:39.292Z,0.90
2019-02-27T08:01:43.758Z,0.90
2019-02-27T08:02:43.937Z,0.90
2019-02-27T08:03:45.781Z,1.00
2019-02-27T08:04:47.065Z,1.00
2019-02-27T08:05:48.213Z,1.00
2019-02-27T08:06:49.352Z,1.00
2019-02-27T08:07:50.585Z,1.00
2019-02-27T08:08:51.749Z,1.00
2019-02-27T08:09:52.894Z,1.00
2019-02-27T08:10:54.046Z,1.00
2019-02-27T08:11:55.184Z,1.10
2019-02-27T08:12:56.736Z,1.10
2019-02-27T08:13:57.961Z,1.10
2019-02-27T08:14:59.905Z,1.10
2019-02-27T08:16:01.549Z,1.20
2019-02-27T08:17:02.989Z,1.20
2019-02-27T08:18:04.496Z,1.20
2019-02-27T08:19:05.803Z,1.20
2019-02-27T08:20:08.252Z,1.20
2019-02-27T08:21:09.669Z,1.30
2019-02-27T08:22:10.885Z,1.30
2019-02-27T08:23:12.025Z,1.40
2019-02-27T08:24:14.339Z,1.40
2019-02-27T08:25:16.985Z,1.50
2019-02-27T08:26:18.521Z,1.50
2019-02-27T08:27:19.776Z,1.60
2019-02-27T08:28:20.912Z,1.60
2019-02-27T08:29:22.323Z,1.60
2019-02-27T08:30:24.755Z,1.70
2019-02-27T08:31:28.165Z,1.70
2019-02-27T08:32:28.949Z,1.80
2019-02-27T08:33:30.093Z,1.80
2019-02-27T08:34:31.229Z,1.90
2019-02-27T08:35:32.705Z,1.90
2019-02-27T08:36:33.849Z,1.90
2019-02-27T08:37:34.979Z,2.00
2019-02-27T08:38:36.408Z,2.00
2019-02-27T08:39:37.541Z,2.00
2019-02-27T08:40:38.690Z,2.10
2019-02-27T08:41:39.926Z,2.20
2019-02-27T08:42:41.265Z,2.30
2019-02-27T08:43:42.398Z,2.30
2019-02-27T08:44:45.798Z,2.40
2019-02-27T08:45:46.861Z,2.40
2019-02-27T08:46:48.077Z,2.50
2019-02-27T08:47:49.212Z,2.60
2019-02-27T08:48:50.724Z,2.60
2019-02-27T08:49:51.980Z,2.60
2019-02-27T08:50:53.112Z,2.70
2019-02-27T08:51:54.277Z,2.70
2019-02-27T08:52:55.434Z,2.80
2019-02-27T08:53:58.979Z,2.90
2019-02-27T08:54:59.966Z,2.90
2019-02-27T08:56:01.107Z,3.00
2019-02-27T08:57:02.485Z,3.10
2019-02-27T08:58:03.630Z,3.10
2019-02-27T08:59:05.807Z,3.10
2019-02-27T09:00:14.166Z,3.20
2019-02-27T09:01:13.958Z,3.30
2019-02-27T09:02:15.171Z,3.30
2019-02-27T09:03:20.334Z,3.40
2019-02-27T09:04:19.450Z,3.40
2019-02-27T09:05:20.979Z,3.40
2019-02-27T09:06:27.369Z,3.50
2019-02-27T09:07:25.384Z,3.60
2019-02-27T09:08:26.522Z,3.60
2019-02-27T09:09:27.656Z,3.70
2019-02-27T09:10:30.685Z,3.70
2019-02-27T09:11:32.138Z,3.80
2019-02-27T09:12:33.282Z,3.80
2019-02-27T09:13:34.422Z,3.90
2019-02-27T09:14:35.843Z,3.90
2019-02-27T09:15:36.979Z,4.00
2019-02-27T09:16:38.129Z,4.00
2019-02-27T09:17:39.423Z,4.10
2019-02-27T09:18:40.902Z,4.10
2019-02-27T09:19:45.358Z,4.20
2019-02-27T09:20:45.091Z,4.20
2019-02-27T09:21:46.403Z,4.30
2019-02-27T09:22:47.845Z,4.40
2019-02-27T09:23:48.981Z,4.40
2019-02-27T09:24:50.428Z,4.40
2019-02-27T09:25:57.159Z,4.50
2019-02-27T09:26:55.039Z,4.60
2019-02-27T09:27:56.196Z,4.60
2019-02-27T09:28:57.849Z,4.60
2019-02-27T09:29:59.009Z,4.80
2019-02-27T09:31:03.170Z,4.80
2019-02-27T09:32:03.206Z,4.90
2019-02-27T09:33:04.618Z,4.90
2019-02-27T09:34:05.844Z,5.00
2019-02-27T09:35:08.985Z,5.10
2019-02-27T09:36:11.003Z,5.20
2019-02-27T09:37:13.912Z,5.20
2019-02-27T09:38:15.286Z,5.30
2019-02-27T09:39:16.683Z,5.30
2019-02-27T09:40:25.724Z,5.40
2019-02-27T09:41:26.964Z,5.40
2019-02-27T09:42:28.433Z,5.50
2019-02-27T09:43:29.825Z,5.60
2019-02-27T09:44:30.966Z,5.60
2019-02-27T09:45:35.910Z,5.70
2019-02-27T09:46:37.353Z,5.70
2019-02-27T09:47:38.505Z,5.80
2019-02-27T09:48:39.660Z,5.90
2019-02-27T09:49:41.585Z,5.90
2019-02-27T09:50:47.597Z,6.10
2019-02-27T09:51:47.576Z,6.10
2019-02-27T09:52:48.721Z,6.20
2019-02-27T09:53:49.867Z,6.20
2019-02-27T09:54:50.993Z,6.30
2019-02-27T09:55:54.346Z,6.40
2019-02-27T09:56:55.561Z,6.50
2019-02-27T09:57:56.692Z,6.50
2019-02-27T09:58:57.846Z,6.60
2019-02-27T09:59:59.065Z,6.60
2019-02-27T10:01:06.998Z,6.70
2019-02-27T10:02:09.280Z,6.80
2019-02-27T10:03:11.062Z,6.90
2019-02-27T10:04:12.205Z,6.90
2019-02-27T10:05:13.440Z,7.00
2019-02-27T10:06:14.681Z,7.00
2019-02-27T10:07:17.079Z,7.10
2019-02-27T10:08:18.369Z,7.20
2019-02-27T10:09:19.524Z,7.30
2019-02-27T10:10:20.945Z,7.30
2019-02-27T10:11:22.442Z,7.40
2019-02-27T10:12:27.053Z,7.50
2019-02-27T10:13:27.115Z,7.60
2019-02-27T10:14:28.542Z,7.60
2019-02-27T10:15:29.701Z,7.70
2019-02-27T10:16:34.625Z,7.70
2019-02-27T10:17:33.917Z,7.80
2019-02-27T10:18:35.448Z,7.90
2019-02-27T10:19:36.596Z,8.00
2019-02-27T10:20:38.113Z,8.00
2019-02-27T10:21:41.222Z,8.10
2019-02-27T10:22:42.300Z,8.20
2019-02-27T10:23:43.753Z,8.30
2019-02-27T10:24:45.144Z,8.40
2019-02-27T10:25:46.633Z,8.50
2019-02-27T10:26:47.769Z,8.50
2019-02-27T10:27:48.921Z,8.60
2019-02-27T10:28:50.784Z,8.60
2019-02-27T10:29:51.966Z,8.70
2019-02-27T10:30:53.109Z,8.70
2019-02-27T10:31:55.426Z,8.80
2019-02-27T10:32:57.020Z,8.90
2019-02-27T10:33:58.166Z,9.00
2019-02-27T10:34:59.298Z,9.10
2019-02-27T10:36:03.417Z,9.10
2019-02-27T10:37:03.844Z,9.20
2019-02-27T10:38:05.551Z,9.20
2019-02-27T10:39:07.101Z,9.30
2019-02-27T10:40:14.162Z,9.50
2019-02-27T10:41:15.302Z,9.60
2019-02-27T10:42:16.641Z,9.60
2019-02-27T10:43:17.827Z,9.70
2019-02-27T10:44:18.961Z,9.70
2019-02-27T10:45:20.449Z,9.80
2019-02-27T10:46:23.765Z,9.90
2019-02-27T10:47:25.584Z,10.00
2019-02-27T10:48:26.732Z,10.10
2019-02-27T10:49:27.900Z,10.20
2019-02-27T10:50:29.053Z,10.30
2019-02-27T10:51:30.499Z,10.40
2019-02-27T10:52:32.065Z,10.40
2019-02-27T10:53:33.217Z,10.50
2019-02-27T10:54:37.012Z,10.50
2019-02-27T10:55:37.678Z,10.60
2019-02-27T10:56:38.808Z,10.70
2019-02-27T10:57:39.962Z,10.80
2019-02-27T10:58:41.209Z,10.80
2019-02-27T10:59:42.457Z,10.80
2019-02-27T11:00:46.379Z,11.00
2019-02-27T11:01:47.615Z,11.00
2019-02-27T11:02:52.253Z,11.00
2019-02-27T11:03:54.577Z,11.10
2019-02-27T11:04:55.837Z,11.30
2019-02-27T11:05:56.979Z,11.40
2019-02-27T11:06:58.117Z,11.50
2019-02-27T11:07:59.604Z,11.60
2019-02-27T11:09:04.492Z,11.70
2019-02-27T11:10:07.549Z,11.80
2019-02-27T11:11:08.873Z,11.90
2019-02-27T11:12:10.124Z,12.00
2019-02-27T11:13:11.277Z,12.10
2019-02-27T11:14:12.424Z,12.20
2019-02-27T11:15:17.620Z,12.40
2019-02-27T11:16:21.269Z,12.40
2019-02-27T11:17:22.083Z,12.60
2019-02-27T11:18:23.518Z,12.70
2019-02-27T11:19:24.777Z,12.80
2019-02-27T11:20:25.902Z,12.90
2019-02-27T11:21:27.033Z,13.10
2019-02-27T11:22:31.652Z,13.20
2019-02-27T11:23:31.225Z,13.40
2019-02-27T11:24:32.359Z,13.50
2019-02-27T11:25:33.501Z,13.60
2019-02-27T11:26:34.662Z,13.70
2019-02-27T11:27:36.336Z,13.80
2019-02-27T11:28:38.866Z,13.90
2019-02-27T11:29:40.021Z,14.10
2019-02-27T11:30:41.971Z,14.20
2019-02-27T11:31:45.543Z,14.30
2019-02-27T11:32:46.536Z,14.50
2019-02-27T11:33:47.926Z,14.70
2019-02-27T11:34:49.233Z,14.80
2019-02-27T11:35:50.394Z,14.90
2019-02-27T11:36:51.538Z,15.00
2019-02-27T11:37:54.893Z,15.10
2019-02-27T11:38:56.672Z,15.30
2019-02-27T11:40:00.223Z,15.40
2019-02-27T11:41:01.670Z,15.50
2019-02-27T11:42:03.029Z,15.70
2019-02-27T11:43:06.964Z,15.80
2019-02-27T11:44:07.369Z,15.90
2019-02-27T11:45:11.381Z,16.00
2019-02-27T11:46:12.525Z,16.20
2019-02-27T11:47:13.669Z,16.30
2019-02-27T11:48:15.129Z,16.40
2019-02-27T11:49:16.329Z,16.60
2019-02-27T11:50:18.755Z,16.70
2019-02-27T11:51:20.204Z,16.80
2019-02-27T11:52:21.546Z,17.00
2019-02-27T11:53:23.389Z,17.10
2019-02-27T11:54:24.537Z,17.20
2019-02-27T11:55:25.930Z,17.40
2019-02-27T11:56:27.104Z,17.50
2019-02-27T11:57:30.606Z,17.70
2019-02-27T11:58:31.485Z,17.80
2019-02-27T11:59:32.641Z,17.90
2019-02-27T12:00:33.983Z,18.10
2019-02-27T12:01:35.119Z,18.20
2019-02-27T12:02:37.776Z,18.40
2019-02-27T12:03:39.081Z,18.50
2019-02-27T12:04:40.222Z,18.70
2019-02-27T12:05:41.605Z,18.80
2019-02-27T12:06:42.746Z,19.00
2019-02-27T12:07:43.981Z,19.10
2019-02-27T12:08:45.114Z,19.30
2019-02-27T12:09:46.357Z,19.40
2019-02-27T12:10:47.537Z,19.60
2019-02-27T12:11:49.465Z,19.70
2019-02-27T12:12:50.822Z,19.80
2019-02-27T12:13:52.261Z,19.90
2019-02-27T12:14:53.409Z,20.00
2019-02-27T12:15:54.833Z,20.20
2019-02-27T12:16:55.970Z,20.30
2019-02-27T12:18:00.292Z,20.50
2019-02-27T12:19:00.638Z,20.70
2019-02-27T12:20:03.201Z,20.80
2019-02-27T12:21:04.456Z,21.00
2019-02-27T12:22:05.588Z,21.10
2019-02-27T12:23:07.540Z,21.20
2019-02-27T12:24:09.871Z,21.40
2019-02-27T12:25:15.598Z,21.60
2019-02-27T12:26:16.940Z,21.70
2019-02-27T12:27:37.802Z,21.90
2019-02-27T12:28:21.800Z,22.00
2019-02-27T12:29:24.195Z,22.10
2019-02-27T12:30:27.500Z,22.30
2019-02-27T12:31:28.634Z,22.40
2019-02-27T12:32:29.979Z,22.50
2019-02-27T12:33:31.118Z,22.60
2019-02-27T12:34:34.049Z,22.60
2019-02-27T12:35:35.917Z,22.70
2019-02-27T12:36:37.130Z,22.80
2019-02-27T12:37:38.532Z,23.00
2019-02-27T12:38:42.352Z,23.10
2019-02-27T12:39:43.607Z,23.30
2019-02-27T12:40:44.861Z,23.40
2019-02-27T12:41:49.144Z,23.50
2019-02-27T12:42:50.616Z,23.60
2019-02-27T12:43:52.642Z,23.80
2019-02-27T12:44:54.695Z,23.90
2019-02-27T12:46:01.079Z,24.00
2019-02-27T12:47:01.177Z,24.10
2019-02-27T12:48:02.318Z,24.20
2019-02-27T12:49:03.557Z,24.40
2019-02-27T12:50:08.500Z,24.40
2019-02-27T12:51:11.003Z,24.60
2019-02-27T12:52:15.285Z,24.70
2019-02-27T12:53:20.743Z,24.80
2019-02-27T12:54:19.593Z,24.80
2019-02-27T12:55:20.986Z,25.00
2019-02-27T12:56:22.136Z,25.10
2019-02-27T12:57:23.279Z,25.10
2019-02-27T12:58:25.937Z,25.20
2019-02-27T12:59:27.081Z,25.30
2019-02-27T13:00:29.527Z,25.40
2019-02-27T13:01:30.674Z,25.50
2019-02-27T13:02:35.838Z,25.60
2019-02-27T13:03:42.225Z,25.70
2019-02-27T13:04:40.881Z,25.90
2019-02-27T13:05:43.086Z,26.00
2019-02-27T13:06:44.240Z,26.10
2019-02-27T13:07:45.532Z,26.20
2019-02-27T13:08:46.742Z,26.20
2019-02-27T13:09:48.225Z,26.30
2019-02-27T13:10:49.574Z,26.40
2019-02-27T13:11:50.760Z,26.60
2019-02-27T13:12:52.582Z,26.60
2019-02-27T13:13:53.914Z,26.70
2019-02-27T13:14:55.073Z,26.80
2019-02-27T13:15:56.296Z,26.90
2019-02-27T13:16:57.313Z,27.10
2019-02-27T13:18:00.392Z,27.10
2019-02-27T13:19:06.281Z,27.30
2019-02-27T13:20:09.053Z,27.40
2019-02-27T13:21:11.843Z,27.50
2019-02-27T13:22:13.294Z,26.90
2019-02-27T13:23:14.730Z,26.70
2019-02-27T13:24:16.191Z,26.70
2019-02-27T13:25:17.667Z,25.90
2019-02-27T13:26:20.782Z,25.40
2019-02-27T13:27:25.177Z,25.40
2019-02-27T13:28:26.427Z,24.80
2019-02-27T13:29:27.584Z,24.30
2019-02-27T13:30:28.732Z,23.70
2019-02-27T13:31:29.881Z,23.60
2019-02-27T13:32:31.021Z,23.70
2019-02-27T13:33:32.921Z,23.40
2019-02-27T13:34:34.215Z,23.30
2019-02-27T13:35:35.358Z,22.70
2019-02-27T13:36:36.570Z,22.60
2019-02-27T13:37:37.805Z,22.80
2019-02-27T13:38:39.205Z,23.00
2019-02-27T13:39:40.337Z,22.80
2019-02-27T13:40:41.477Z,22.60
2019-02-27T13:41:45.663Z,22.20
2019-02-27T13:42:45.809Z,21.70
2019-02-27T13:43:46.942Z,22.10
2019-02-27T13:44:48.078Z,21.90
2019-02-27T13:45:49.601Z,22.10
2019-02-27T13:46:54.467Z,22.00
2019-02-27T13:47:55.809Z,21.40
2019-02-27T13:48:56.946Z,21.80
2019-02-27T13:49:58.421Z,21.90
2019-02-27T13:51:02.392Z,22.20
2019-02-27T13:52:02.623Z,22.50
2019-02-27T13:53:04.073Z,22.50
2019-02-27T13:54:05.428Z,22.30
2019-02-27T13:55:11.203Z,22.40
2019-02-27T13:56:12.897Z,22.50
2019-02-27T13:57:14.469Z,22.20
2019-02-27T13:58:15.604Z,22.00
2019-02-27T13:59:16.747Z,22.10
2019-02-27T14:00:28.778Z,22.50
2019-02-27T14:01:29.918Z,22.80
2019-02-27T14:02:31.228Z,23.50